Time;durP1;ratioP1;P1;durP2;ratioP2;P2;SDS_P1;SDS_P2;PMS_P1;PMS_P2;Temp;Humidity;BMP_temperature;BMP_pressure;BME280_temperature;BME280_humidity;BME280_pressure;Samples;Min_cycle;Max_cycle;Signal;HPM_P1;HPM_P2
2021/10/23 00:01:31;;;;;;;18.17;9.20;;;10.60;62.40;;;;;;4958411;28;20031;-82
2021/10/23 00:03:56;;;;;;;17.75;8.70;;;10.50;62.30;;;;;;4975914;28;20035;-83
2021/10/23 00:06:23;;;;;;;16.10;9.00;;;10.50;62.70;;;;;;4958003;28;20037;-82
2021/10/23 00:08:49;;;;;;;15.25;8.07;;;10.50;63.20;;;;;;4958893;28;20062;-82
2021/10/23 00:11:15;;;;;;;16.20;7.47;;;10.40;62.80;;;;;;4958103;28;20077;-81
2021/10/23 00:13:41;;;;;;;16.40;7.60;;;10.40;63.00;;;;;;4958494;28;20090;-82
2021/10/23 00:16:07;;;;;;;16.02;7.90;;;10.40;63.00;;;;;;4958466;28;20470;-83
2021/10/23 00:18:33;;;;;;;15.68;7.90;;;10.40;63.00;;;;;;4959028;28;20069;-83
2021/10/23 00:20:58;;;;;;;14.40;7.07;;;10.30;63.00;;;;;;4958838;28;20035;-82
2021/10/23 00:23:24;;;;;;;16.98;8.25;;;10.30;63.10;;;;;;4975711;28;20035;-83
2021/10/23 00:25:50;;;;;;;15.52;8.38;;;10.30;63.10;;;;;;4958125;28;20385;-83
2021/10/23 00:28:15;;;;;;;14.88;8.20;;;10.20;63.50;;;;;;4958274;28;20062;-82
2021/10/23 00:30:41;;;;;;;14.55;7.82;;;10.20;63.50;;;;;;4975638;28;20034;-82
2021/10/23 00:33:07;;;;;;;14.82;7.30;;;10.10;63.50;;;;;;4975302;28;20521;-83
2021/10/23 00:35:32;;;;;;;14.77;8.07;;;10.10;63.50;;;;;;4957661;28;20057;-84
2021/10/23 00:38:00;;;;;;;14.60;8.18;;;10.10;63.80;;;;;;4975106;28;20035;-84
2021/10/23 00:40:26;;;;;;;13.85;7.75;;;10.10;64.00;;;;;;4958010;28;20022;-82
2021/10/23 00:42:53;;;;;;;16.15;7.70;;;10.10;64.10;;;;;;4957718;28;20047;-83
2021/10/23 00:45:19;;;;;;;14.98;7.78;;;10.10;64.00;;;;;;4958335;28;20508;-81
2021/10/23 00:47:46;;;;;;;12.80;6.97;;;10.00;63.90;;;;;;4957705;28;20031;-82
2021/10/23 00:50:12;;;;;;;13.98;7.00;;;10.00;64.00;;;;;;4958125;28;20086;-82
2021/10/23 00:52:38;;;;;;;13.90;7.35;;;10.00;64.30;;;;;;4976746;28;20027;-83
2021/10/23 00:55:07;;;;;;;12.48;6.50;;;10.00;64.10;;;;;;4975299;28;20035;-83
2021/10/23 00:57:33;;;;;;;13.52;7.05;;;10.00;64.00;;;;;;4974977;28;20146;-82
2021/10/23 00:59:59;;;;;;;14.05;7.00;;;10.00;63.90;;;;;;4957837;28;20054;-83
2021/10/23 01:02:24;;;;;;;14.50;6.95;;;10.00;63.90;;;;;;4957764;28;20370;-82
2021/10/23 01:04:52;;;;;;;12.85;7.10;;;10.00;63.90;;;;;;4957740;28;20489;-81
2021/10/23 01:07:18;;;;;;;14.65;7.80;;;10.00;64.00;;;;;;4957775;28;20469;-82
2021/10/23 01:09:44;;;;;;;15.80;7.55;;;10.10;64.10;;;;;;4957796;28;20035;-83
2021/10/23 01:12:13;;;;;;;14.20;7.35;;;10.10;64.00;;;;;;4957322;28;20053;-82
2021/10/23 01:14:41;;;;;;;15.55;7.70;;;10.10;64.00;;;;;;4958371;28;20030;-83
2021/10/23 01:17:07;;;;;;;14.90;7.53;;;10.10;64.00;;;;;;4957643;28;20544;-83
2021/10/23 01:19:33;;;;;;;17.10;8.38;;;10.10;64.00;;;;;;4974882;28;20030;-81
2021/10/23 01:21:59;;;;;;;17.65;8.98;;;10.10;64.30;;;;;;4975353;28;20030;-81
2021/10/23 01:24:24;;;;;;;16.38;8.13;;;10.00;64.40;;;;;;4975250;28;20035;-81
2021/10/23 01:26:51;;;;;;;16.25;8.73;;;10.00;64.40;;;;;;4974989;28;20038;-82
2021/10/23 01:29:20;;;;;;;15.18;8.50;;;10.00;64.60;;;;;;4975653;28;20038;-83
2021/10/23 01:31:49;;;;;;;16.73;8.93;;;10.00;64.60;;;;;;4957377;28;20043;-83
2021/10/23 01:34:32;;;;;;;16.75;8.35;;;9.90;64.60;;;;;;4958424;28;20109;-83
2021/10/23 01:36:59;;;;;;;15.68;8.52;;;9.90;65.50;;;;;;4974628;28;20054;-83
2021/10/23 01:39:27;;;;;;;18.60;9.68;;;9.80;65.10;;;;;;4957172;28;20038;-83
2021/10/23 01:41:53;;;;;;;21.33;11.02;;;9.80;65.40;;;;;;4957672;28;20145;-82
2021/10/23 01:44:28;;;;;;;21.15;10.60;;;9.70;65.70;;;;;;4974477;28;20086;-84
2021/10/23 01:46:54;;;;;;;20.25;10.25;;;9.70;65.90;;;;;;4974696;28;20030;-83
2021/10/23 01:49:19;;;;;;;17.83;9.90;;;9.60;66.10;;;;;;4957407;28;20027;-83
2021/10/23 01:51:45;;;;;;;19.13;9.20;;;9.50;66.10;;;;;;4957107;28;20033;-82
2021/10/23 01:54:11;;;;;;;22.80;10.82;;;9.50;66.10;;;;;;4957308;28;20027;-83
2021/10/23 01:56:39;;;;;;;19.88;10.02;;;9.50;66.30;;;;;;4957145;28;20031;-83
2021/10/23 01:59:05;;;;;;;24.65;11.43;;;9.50;66.40;;;;;;4957289;28;20074;-83
2021/10/23 02:01:32;;;;;;;21.70;11.48;;;9.50;66.70;;;;;;4974532;28;20105;-84
2021/10/23 02:03:58;;;;;;;21.20;11.32;;;9.40;66.80;;;;;;4974998;28;20110;-84
2021/10/23 02:06:24;;;;;;;22.48;12.23;;;9.40;66.80;;;;;;4956435;28;20464;-84
2021/10/23 02:08:50;;;;;;;22.10;11.55;;;9.30;67.10;;;;;;4974498;28;20123;-82
2021/10/23 02:11:17;;;;;;;23.00;11.43;;;9.30;67.40;;;;;;4957131;28;20113;-82
2021/10/23 02:13:43;;;;;;;21.85;11.07;;;9.30;67.50;;;;;;4974406;28;20031;-82
2021/10/23 02:16:09;;;;;;;23.60;12.25;;;9.30;67.60;;;;;;4974470;28;20037;-83
2021/10/23 02:18:36;;;;;;;21.88;11.75;;;9.20;67.80;;;;;;4974451;28;20027;-83
2021/10/23 02:21:05;;;;;;;22.25;11.43;;;9.20;67.90;;;;;;4957381;28;20114;-82
2021/10/23 02:23:31;;;;;;;22.20;11.30;;;9.10;67.90;;;;;;4957290;28;20027;-84
2021/10/23 02:25:57;;;;;;;20.02;10.80;;;9.10;68.10;;;;;;4974200;28;20038;-83
2021/10/23 02:28:23;;;;;;;18.02;9.52;;;9.10;68.40;;;;;;4974334;28;20034;-83
2021/10/23 02:30:48;;;;;;;17.92;9.30;;;9.10;68.40;;;;;;4978497;28;20085;-82
2021/10/23 02:33:14;;;;;;;16.33;8.38;;;9.10;68.80;;;;;;4979435;28;20027;-83
2021/10/23 02:35:41;;;;;;;17.90;8.93;;;9.10;68.30;;;;;;4977493;28;20037;-83
2021/10/23 02:38:07;;;;;;;16.40;8.40;;;9.10;68.10;;;;;;4978280;28;20039;-84
2021/10/23 02:40:33;;;;;;;13.98;8.07;;;9.10;68.10;;;;;;4978634;28;20042;-84
2021/10/23 02:42:58;;;;;;;14.68;8.18;;;9.10;68.10;;;;;;4978195;28;20050;-84
2021/10/23 02:45:24;;;;;;;14.23;7.28;;;9.10;68.20;;;;;;4960471;28;20096;-82
2021/10/23 02:47:50;;;;;;;11.57;6.60;;;9.10;68.00;;;;;;4959853;28;20027;-84
2021/10/23 02:50:16;;;;;;;13.25;6.60;;;9.10;67.90;;;;;;4978300;28;20027;-83
2021/10/23 02:52:42;;;;;;;11.88;6.40;;;9.10;68.00;;;;;;4960878;28;20496;-82
2021/10/23 02:55:08;;;;;;;11.80;5.95;;;9.10;67.90;;;;;;4959140;28;20030;-83
2021/10/23 02:57:34;;;;;;;9.38;5.60;;;9.10;67.90;;;;;;4960162;28;20373;-83
2021/10/23 02:59:59;;;;;;;10.35;6.30;;;9.10;67.90;;;;;;4960163;28;20121;-83
2021/10/23 03:02:25;;;;;;;10.52;6.03;;;9.10;68.70;;;;;;4960034;28;20425;-83
2021/10/23 03:04:51;;;;;;;9.93;6.18;;;9.10;68.10;;;;;;4960041;28;20031;-82
2021/10/23 03:07:16;;;;;;;11.30;6.07;;;9.10;68.00;;;;;;4977348;28;20063;-83
2021/10/23 03:09:42;;;;;;;11.50;6.10;;;9.00;68.00;;;;;;4959889;28;20077;-83
2021/10/23 03:12:08;;;;;;;10.77;5.88;;;9.00;67.90;;;;;;4976932;28;20027;-84
2021/10/23 03:14:33;;;;;;;8.88;5.78;;;9.00;67.90;;;;;;4959117;28;20037;-83
2021/10/23 03:16:59;;;;;;;10.98;6.20;;;9.10;68.10;;;;;;4959514;28;20469;-83
2021/10/23 03:19:25;;;;;;;12.18;6.50;;;9.00;68.10;;;;;;4976924;28;20042;-82
2021/10/23 03:21:51;;;;;;;10.40;6.18;;;9.00;68.10;;;;;;4976476;28;20089;-83
2021/10/23 03:24:17;;;;;;;10.50;5.72;;;9.10;68.10;;;;;;4959614;28;20113;-84
2021/10/23 03:26:43;;;;;;;9.30;5.70;;;9.00;68.00;;;;;;4959597;28;20039;-84
2021/10/23 03:29:09;;;;;;;8.77;5.00;;;9.00;68.10;;;;;;4976632;28;20030;-84
2021/10/23 03:31:34;;;;;;;9.90;5.28;;;9.00;68.00;;;;;;4976794;28;20027;-82
2021/10/23 03:34:00;;;;;;;8.48;4.57;;;9.00;68.00;;;;;;4958833;28;20484;-82
2021/10/23 03:36:27;;;;;;;7.28;4.13;;;9.00;67.90;;;;;;4976538;28;20485;-83
2021/10/23 03:38:53;;;;;;;7.85;4.22;;;9.00;67.80;;;;;;4959370;28;20119;-82
2021/10/23 03:41:19;;;;;;;7.82;4.22;;;9.00;67.80;;;;;;4975597;28;20051;-83
2021/10/23 03:43:44;;;;;;;8.48;4.13;;;9.00;67.80;;;;;;4976487;28;20105;-84
2021/10/23 03:46:10;;;;;;;9.25;4.80;;;9.00;67.80;;;;;;4958725;28;20133;-83
2021/10/23 03:48:37;;;;;;;7.78;4.68;;;9.00;67.70;;;;;;4958778;28;20027;-82
2021/10/23 03:51:04;;;;;;;8.85;4.70;;;8.90;67.70;;;;;;4959086;28;20081;-82
2021/10/23 03:53:30;;;;;;;8.43;4.85;;;8.90;68.00;;;;;;4976912;28;20574;-82
2021/10/23 03:55:56;;;;;;;10.10;5.15;;;8.80;68.00;;;;;;4975654;28;20489;-82
2021/10/23 03:58:22;;;;;;;14.68;8.70;;;8.70;68.00;;;;;;4958764;28;20073;-82
2021/10/23 04:00:47;;;;;;;18.98;10.35;;;8.70;68.10;;;;;;4958132;28;20037;-83
2021/10/23 04:03:13;;;;;;;18.92;9.85;;;8.70;68.30;;;;;;4976250;28;20045;-85
2021/10/23 04:05:40;;;;;;;21.20;9.50;;;8.70;68.30;;;;;;4959089;28;20454;-83
2021/10/23 04:08:06;;;;;;;18.08;9.15;;;8.70;68.40;;;;;;4976100;28;20061;-83
2021/10/23 04:10:32;;;;;;;17.42;8.57;;;8.70;68.60;;;;;;4959064;28;20062;-82
2021/10/23 04:12:57;;;;;;;16.05;7.53;;;8.70;68.50;;;;;;4958417;28;20037;-82
2021/10/23 04:15:23;;;;;;;11.32;7.00;;;8.70;68.50;;;;;;4958884;28;20545;-83
2021/10/23 04:17:50;;;;;;;12.05;6.15;;;8.70;68.70;;;;;;4975963;28;20035;-83
2021/10/23 04:20:16;;;;;;;11.93;6.15;;;8.70;68.70;;;;;;4975935;28;20420;-83
2021/10/23 04:22:42;;;;;;;12.88;5.88;;;8.60;68.70;;;;;;4959296;28;20023;-83
2021/10/23 04:25:08;;;;;;;10.70;5.68;;;8.60;68.50;;;;;;4975704;28;20065;-81
2021/10/23 04:27:34;;;;;;;12.25;5.70;;;8.60;68.50;;;;;;4975632;28;20105;-82
2021/10/23 04:30:00;;;;;;;9.77;5.43;;;8.50;68.50;;;;;;4957617;28;20458;-82
2021/10/23 04:32:25;;;;;;;10.27;5.18;;;8.50;68.70;;;;;;4958259;28;20465;-82
2021/10/23 04:34:51;;;;;;;9.27;5.05;;;8.50;68.80;;;;;;4975402;28;20031;-82
2021/10/23 04:37:17;;;;;;;9.98;5.65;;;8.50;68.90;;;;;;4975483;28;20078;-83
2021/10/23 04:39:42;;;;;;;10.10;5.60;;;8.50;69.10;;;;;;4957696;28;20027;-82
2021/10/23 04:42:08;;;;;;;10.30;5.20;;;8.50;69.00;;;;;;4975222;28;20379;-82
2021/10/23 04:44:34;;;;;;;8.93;5.07;;;8.50;68.90;;;;;;4957550;28;20035;-84
2021/10/23 04:47:00;;;;;;;8.55;5.32;;;8.50;68.90;;;;;;4957573;28;20022;-82
2021/10/23 04:49:26;;;;;;;9.00;4.95;;;8.50;68.80;;;;;;4957859;28;20046;-84
2021/10/23 04:51:52;;;;;;;9.10;4.72;;;8.50;68.90;;;;;;4944342;28;20043;-83
2021/10/23 04:54:19;;;;;;;8.50;4.20;;;8.40;68.90;;;;;;4957834;28;20085;-85
2021/10/23 04:56:48;;;;;;;9.10;4.60;;;8.40;68.90;;;;;;4974928;28;20027;-84
2021/10/23 04:59:14;;;;;;;10.93;4.93;;;8.40;69.00;;;;;;4957588;28;20035;-84
2021/10/23 05:01:41;;;;;;;8.50;4.50;;;8.40;69.10;;;;;;4974856;28;20081;-82
2021/10/23 05:04:10;;;;;;;9.45;4.60;;;8.40;69.30;;;;;;4957697;28;20035;-85
2021/10/23 05:06:36;;;;;;;8.25;4.10;;;8.40;69.20;;;;;;4958352;28;20039;-91
2021/10/23 05:09:02;;;;;;;7.35;4.00;;;8.40;69.10;;;;;;4975583;28;20493;-85
2021/10/23 05:11:28;;;;;;;7.57;3.55;;;8.40;69.10;;;;;;4957874;28;20022;-84
2021/10/23 05:13:53;;;;;;;6.70;3.58;;;8.50;69.10;;;;;;4958108;28;20039;-84
2021/10/23 05:16:19;;;;;;;6.78;3.63;;;8.50;69.20;;;;;;4957342;28;20027;-85
2021/10/23 05:18:48;;;;;;;6.53;3.60;;;8.50;69.10;;;;;;4974945;28;20031;-82
2021/10/23 05:21:18;;;;;;;7.70;3.63;;;8.50;69.10;;;;;;4975043;28;20026;-81
2021/10/23 05:23:46;;;;;;;5.63;3.38;;;8.60;69.20;;;;;;4957361;28;20510;-81
2021/10/23 05:26:12;;;;;;;8.68;3.80;;;8.60;69.10;;;;;;4957538;28;20034;-83
2021/10/23 05:28:38;;;;;;;8.68;4.70;;;8.70;69.20;;;;;;4974626;28;20094;-83
2021/10/23 05:31:04;;;;;;;9.43;5.07;;;8.80;69.30;;;;;;4974987;28;20421;-83
2021/10/23 05:33:30;;;;;;;9.32;4.82;;;8.90;69.30;;;;;;4972901;28;20114;-80
2021/10/23 05:35:57;;;;;;;8.13;4.50;;;9.00;69.10;;;;;;4993798;28;20038;-82
2021/10/23 05:38:24;;;;;;;8.77;4.70;;;9.10;68.90;;;;;;4959717;28;20031;-81
2021/10/23 05:40:49;;;;;;;8.07;4.35;;;9.20;68.80;;;;;;4956634;28;20038;-80
2021/10/23 05:43:15;;;;;;;8.60;4.63;;;9.20;68.60;;;;;;4976723;28;20027;-83
2021/10/23 05:45:42;;;;;;;8.43;4.80;;;9.30;68.50;;;;;;4963879;28;20026;-81
2021/10/23 05:48:07;;;;;;;7.55;4.30;;;9.30;68.40;;;;;;4966356;28;20385;-81
2021/10/23 05:50:33;;;;;;;6.65;4.18;;;9.40;68.30;;;;;;4981669;28;20023;-82
2021/10/23 05:52:59;;;;;;;13.48;5.35;;;9.50;68.40;;;;;;4995606;28;20130;-81
2021/10/23 05:55:25;;;;;;;8.82;5.00;;;9.60;68.20;;;;;;4997467;28;20030;-82
2021/10/23 05:57:54;;;;;;;12.10;5.82;;;9.60;68.10;;;;;;4982761;28;20385;-81
2021/10/23 06:00:19;;;;;;;11.70;6.00;;;9.70;68.00;;;;;;4997076;28;20046;-81
2021/10/23 06:02:46;;;;;;;12.68;6.53;;;9.70;68.00;;;;;;4983486;28;20022;-82
2021/10/23 06:05:12;;;;;;;10.77;6.18;;;9.70;68.00;;;;;;4983629;28;20057;-81
2021/10/23 06:07:39;;;;;;;9.18;5.38;;;9.70;68.20;;;;;;4970044;28;20022;-84
2021/10/23 06:10:08;;;;;;;10.30;5.85;;;9.70;68.00;;;;;;4985230;28;20178;-84
2021/10/23 06:12:34;;;;;;;11.38;5.88;;;9.70;68.10;;;;;;4987345;28;20030;-82
2021/10/23 06:15:00;;;;;;;10.68;5.93;;;9.70;68.20;;;;;;4985350;28;20110;-84
2021/10/23 06:17:27;;;;;;;10.57;5.40;;;9.70;68.40;;;;;;5001742;28;20596;-83
2021/10/23 06:19:53;;;;;;;12.68;6.07;;;9.70;68.40;;;;;;4984521;28;20469;-83
2021/10/23 06:22:19;;;;;;;8.98;5.25;;;9.70;68.50;;;;;;4972595;28;20117;-82
2021/10/23 06:24:45;;;;;;;11.13;5.53;;;9.70;68.60;;;;;;4986300;28;20604;-83
2021/10/23 06:27:11;;;;;;;8.20;4.85;;;9.70;68.60;;;;;;4971830;28;20034;-82
2021/10/23 06:29:36;;;;;;;8.95;5.35;;;9.80;68.80;;;;;;5001319;28;20022;-80
2021/10/23 06:32:03;;;;;;;11.85;5.18;;;9.80;68.70;;;;;;4975562;28;20038;-80
2021/10/23 06:34:28;;;;;;;10.82;5.10;;;9.90;68.70;;;;;;4986763;28;20027;-81
2021/10/23 06:36:55;;;;;;;12.60;6.30;;;9.90;68.60;;;;;;5000269;28;20081;-81
2021/10/23 06:39:21;;;;;;;10.55;5.32;;;9.90;68.70;;;;;;4970170;28;20027;-82
2021/10/23 06:41:47;;;;;;;12.88;6.80;;;9.80;68.60;;;;;;4986608;28;20042;-83
2021/10/23 06:44:12;;;;;;;10.73;5.85;;;9.90;68.80;;;;;;4986638;28;20035;-81
2021/10/23 06:46:39;;;;;;;11.05;5.65;;;9.90;68.80;;;;;;4999719;28;20060;-82
2021/10/23 06:49:07;;;;;;;14.95;7.18;;;9.90;68.90;;;;;;4967796;28;20085;-86
2021/10/23 06:51:33;;;;;;;14.00;7.15;;;9.90;69.00;;;;;;4969962;28;20026;-82
2021/10/23 06:54:01;;;;;;;14.30;7.40;;;9.90;69.10;;;;;;4982100;28;20022;-81
2021/10/23 06:56:28;;;;;;;14.85;6.85;;;9.80;69.10;;;;;;4968408;28;20036;-81
2021/10/23 06:58:55;;;;;;;12.65;6.78;;;9.80;69.10;;;;;;4968898;28;20030;-83
2021/10/23 07:01:21;;;;;;;14.75;7.22;;;9.80;69.20;;;;;;4967363;28;20105;-80
2021/10/23 07:03:47;;;;;;;18.15;7.65;;;9.90;69.80;;;;;;4987123;28;20034;-81
2021/10/23 07:06:21;;;;;;;12.27;6.82;;;9.90;69.20;;;;;;4999624;28;20122;-80
2021/10/23 07:08:47;;;;;;;14.65;7.38;;;9.90;69.20;;;;;;4963938;28;20019;-81
2021/10/23 07:11:13;;;;;;;13.48;7.70;;;9.80;69.10;;;;;;4966328;28;20054;-82
2021/10/23 07:13:39;;;;;;;18.30;9.15;;;9.90;69.20;;;;;;4984496;28;20066;-82
2021/10/23 07:16:04;;;;;;;22.50;11.23;;;9.80;69.10;;;;;;4968192;28;20035;-82
2021/10/23 07:18:30;;;;;;;20.00;10.68;;;9.80;69.20;;;;;;4965912;28;20026;-81
2021/10/23 07:20:56;;;;;;;19.67;10.27;;;9.70;69.20;;;;;;4961742;28;20034;-82
2021/10/23 07:23:21;;;;;;;20.08;10.05;;;9.70;69.20;;;;;;4959900;28;20509;-81
2021/10/23 07:25:47;;;;;;;19.73;9.95;;;9.70;69.30;;;;;;4960019;28;20122;-81
2021/10/23 07:28:14;;;;;;;17.60;9.75;;;9.70;69.40;;;;;;4959309;28;20031;-81
2021/10/23 07:30:40;;;;;;;16.13;8.68;;;9.70;69.40;;;;;;4976702;28;20027;-82
2021/10/23 07:33:06;;;;;;;17.45;8.93;;;9.70;69.40;;;;;;4959344;28;20101;-81
2021/10/23 07:35:32;;;;;;;15.32;7.35;;;9.70;69.50;;;;;;4958902;28;20069;-82
2021/10/23 07:37:57;;;;;;;13.90;7.55;;;9.70;69.50;;;;;;4959768;28;20062;-81
2021/10/23 07:40:23;;;;;;;14.77;8.07;;;9.70;69.60;;;;;;4959147;28;20128;-81
2021/10/23 07:42:49;;;;;;;14.52;7.68;;;9.80;69.70;;;;;;4976313;28;20057;-82
2021/10/23 07:45:15;;;;;;;13.98;7.28;;;9.80;69.70;;;;;;4976511;28;20027;-83
2021/10/23 07:47:42;;;;;;;12.68;6.22;;;9.80;69.60;;;;;;4959181;28;20026;-83
2021/10/23 07:50:09;;;;;;;10.95;5.90;;;9.90;69.60;;;;;;4958941;28;20476;-80
2021/10/23 07:52:39;;;;;;;11.32;6.22;;;9.90;69.60;;;;;;4958961;28;20045;-83
2021/10/23 07:55:07;;;;;;;49.65;33.08;;;10.00;69.70;;;;;;4976483;28;20081;-82
2021/10/23 07:57:34;;;;;;;26.17;15.30;;;10.10;69.50;;;;;;4959052;28;20469;-81
2021/10/23 08:00:00;;;;;;;22.15;11.93;;;10.30;69.30;;;;;;4958824;28;20022;-82
2021/10/23 08:02:26;;;;;;;14.68;8.02;;;10.40;69.10;;;;;;4976785;28;20114;-84
2021/10/23 08:04:52;;;;;;;14.27;7.82;;;10.50;68.80;;;;;;4962406;28;20043;-83
2021/10/23 08:07:18;;;;;;;12.18;6.93;;;10.50;68.60;;;;;;4959391;28;20030;-84
2021/10/23 08:09:44;;;;;;;11.82;6.38;;;10.70;68.50;;;;;;4974283;28;20027;-83
2021/10/23 08:12:10;;;;;;;13.02;6.55;;;10.70;67.90;;;;;;4995647;28;20429;-82
2021/10/23 08:14:36;;;;;;;14.88;6.70;;;10.80;67.80;;;;;;4994983;28;20465;-83
2021/10/23 08:17:03;;;;;;;13.15;6.28;;;10.90;67.70;;;;;;4995059;28;20034;-83
2021/10/23 08:19:32;;;;;;;11.73;5.72;;;11.10;67.40;;;;;;4994489;28;20109;-84
2021/10/23 08:21:58;;;;;;;14.60;6.38;;;11.20;67.00;;;;;;4975526;28;20045;-81
2021/10/23 08:24:24;;;;;;;10.98;5.82;;;11.40;66.60;;;;;;4992637;28;20027;-83
2021/10/23 08:26:49;;;;;;;10.32;5.00;;;11.50;65.60;;;;;;4975155;28;20041;-84
2021/10/23 08:29:16;;;;;;;9.65;4.88;;;11.60;64.70;;;;;;4992877;28;20026;-85
2021/10/23 08:31:45;;;;;;;10.00;5.00;;;11.70;63.80;;;;;;4975328;28;20034;-84
2021/10/23 08:34:11;;;;;;;12.13;4.70;;;12.00;64.00;;;;;;4976742;28;20026;-84
2021/10/23 08:36:37;;;;;;;10.63;4.60;;;12.30;63.10;;;;;;4993712;28;20037;-84
2021/10/23 08:39:05;;;;;;;10.45;5.07;;;12.50;61.70;;;;;;4993728;28;20112;-84
2021/10/23 08:41:31;;;;;;;9.50;4.93;;;12.70;60.80;;;;;;4975780;28;20113;-83
2021/10/23 08:44:01;;;;;;;7.97;4.60;;;12.70;59.50;;;;;;4975893;28;20077;-84
2021/10/23 08:46:29;;;;;;;9.15;5.20;;;12.70;58.90;;;;;;4992566;28;20719;-83
2021/10/23 08:48:55;;;;;;;12.38;6.00;;;12.60;58.20;;;;;;4992885;28;20035;-86
2021/10/23 08:51:25;;;;;;;10.27;5.68;;;12.60;57.70;;;;;;4993030;28;20026;-85
2021/10/23 08:53:53;;;;;;;11.90;5.27;;;12.50;57.10;;;;;;4975618;28;20104;-85
2021/10/23 08:56:19;;;;;;;10.52;5.30;;;12.50;57.50;;;;;;4975775;28;20030;-85
2021/10/23 08:58:45;;;;;;;10.10;5.28;;;12.50;56.90;;;;;;4975824;28;20546;-85
2021/10/23 09:01:15;;;;;;;10.25;4.80;;;12.60;57.00;;;;;;4975773;28;20034;-84
2021/10/23 09:03:41;;;;;;;10.18;4.78;;;12.60;56.70;;;;;;4962130;28;20039;-84
2021/10/23 09:06:38;;;;;;;12.30;4.80;;;12.70;56.50;;;;;;4955806;28;20078;-84
2021/10/23 09:09:23;;;;;;;11.05;5.10;;;12.60;55.90;;;;;;4955549;28;20034;-85
2021/10/23 09:11:48;;;;;;;9.93;4.78;;;12.60;55.50;;;;;;4972988;28;20110;-83
2021/10/23 09:14:31;;;;;;;9.05;4.30;;;12.50;55.90;;;;;;4973091;28;20106;-86
2021/10/23 09:17:01;;;;;;;9.07;4.38;;;12.50;55.60;;;;;;4972248;28;20041;-87
2021/10/23 09:19:36;;;;;;;9.43;4.53;;;12.40;55.80;;;;;;4957114;28;20078;-85
2021/10/23 09:22:03;;;;;;;10.32;4.75;;;12.40;55.50;;;;;;4956305;28;20038;-85
2021/10/23 09:24:28;;;;;;;8.13;4.30;;;12.50;55.30;;;;;;4973960;28;20107;-84
2021/10/23 09:26:54;;;;;;;8.43;4.38;;;12.50;54.80;;;;;;4973184;28;20125;-90
2021/10/23 09:29:25;;;;;;;11.27;3.90;;;12.60;55.30;;;;;;4973202;28;20031;-88
2021/10/23 09:31:55;;;;;;;8.55;3.90;;;12.60;55.00;;;;;;4973987;28;20026;-83
2021/10/23 09:34:23;;;;;;;7.40;3.90;;;12.80;55.30;;;;;;4956529;28;20030;-89
2021/10/23 09:36:53;;;;;;;8.68;3.47;;;12.90;54.90;;;;;;4955871;28;20399;-84
2021/10/23 09:39:24;;;;;;;8.88;3.67;;;13.10;54.50;;;;;;4958220;28;20069;-84
2021/10/23 09:42:07;;;;;;;7.78;3.30;;;13.20;54.00;;;;;;4961482;28;20113;-84
2021/10/23 09:44:34;;;;;;;8.30;3.47;;;13.30;53.30;;;;;;4978927;28;20058;-83
2021/10/23 09:47:01;;;;;;;7.03;3.30;;;13.40;53.30;;;;;;4962652;28;20057;-83
2021/10/23 09:49:27;;;;;;;6.88;3.40;;;13.60;53.60;;;;;;4966298;28;20029;-84
2021/10/23 09:52:09;;;;;;;7.25;3.45;;;13.90;52.90;;;;;;4979844;28;20054;-85
2021/10/23 09:54:39;;;;;;;7.97;3.78;;;14.30;51.00;;;;;;4960533;28;20118;-84
2021/10/23 09:57:09;;;;;;;8.27;3.42;;;14.50;51.10;;;;;;4977676;28;20041;-83
2021/10/23 09:59:38;;;;;;;9.30;3.75;;;14.80;50.70;;;;;;4960173;28;20089;-85
2021/10/23 10:02:06;;;;;;;8.35;3.95;;;14.90;49.60;;;;;;4960113;28;20033;-83
2021/10/23 10:04:32;;;;;;;8.85;3.88;;;14.90;49.20;;;;;;4977086;28;20081;-85
2021/10/23 10:07:00;;;;;;;9.10;4.10;;;14.70;49.60;;;;;;4978062;28;20069;-86
2021/10/23 10:09:27;;;;;;;6.70;3.58;;;14.70;49.80;;;;;;4978088;28;20037;-84
2021/10/23 10:11:54;;;;;;;6.40;3.47;;;14.70;49.80;;;;;;4960021;28;20027;-85
2021/10/23 10:14:24;;;;;;;12.35;4.40;;;14.90;49.60;;;;;;4960657;28;20034;-83
2021/10/23 10:16:54;;;;;;;8.77;4.00;;;14.80;48.90;;;;;;4960682;28;20473;-85
2021/10/23 10:19:20;;;;;;;7.63;3.40;;;14.70;49.10;;;;;;4978198;28;20038;-83
2021/10/23 10:21:47;;;;;;;8.68;3.65;;;14.60;49.60;;;;;;4978192;28;20035;-84
2021/10/23 10:24:23;;;;;;;8.38;3.38;;;14.50;49.60;;;;;;4960562;28;20031;-85
2021/10/23 10:27:04;;;;;;;8.43;3.80;;;14.50;50.00;;;;;;4960618;28;20042;-84
2021/10/23 10:29:52;;;;;;;8.65;4.07;;;14.50;50.00;;;;;;4960538;28;20039;-82
2021/10/23 10:32:33;;;;;;;9.55;4.18;;;14.60;49.10;;;;;;4977680;28;20043;-84
2021/10/23 10:42:58;;;;;;;10.83;4.73;;;16.10;47.60;;;;;;4977569;28;20500;-86
2021/10/23 10:45:36;;;;;;;18.13;11.95;;;16.30;47.60;;;;;;4978324;28;20316;-88
2021/10/23 10:48:15;;;;;;;13.38;5.95;;;16.90;48.30;;;;;;4960240;28;20030;-84
2021/10/23 10:50:48;;;;;;;8.32;4.72;;;17.80;45.20;;;;;;4960107;28;20023;-84
2021/10/23 10:53:27;;;;;;;8.50;4.35;;;17.90;44.50;;;;;;4976851;28;20033;-86
2021/10/23 10:56:02;;;;;;;9.57;4.30;;;17.70;44.30;;;;;;4960562;28;20113;-86
2021/10/23 10:58:44;;;;;;;10.15;4.40;;;17.40;45.10;;;;;;4960488;28;20082;-89
2021/10/23 11:01:21;;;;;;;8.95;4.38;;;17.10;45.10;;;;;;4977149;28;20474;-86
2021/10/23 11:03:48;;;;;;;7.95;3.97;;;16.80;45.90;;;;;;4959844;28;20161;-88
2021/10/23 11:06:42;;;;;;;7.75;4.05;;;16.60;46.00;;;;;;4977297;28;20035;-85
2021/10/23 11:09:10;;;;;;;8.70;4.00;;;16.50;46.20;;;;;;4960448;28;20458;-85
2021/10/23 11:14:37;;;;;;;7.18;3.55;;;16.70;46.50;;;;;;4978252;28;20042;-91
2021/10/23 11:17:05;;;;;;;10.90;4.65;;;17.10;46.20;;;;;;4977205;28;20070;-87
2021/10/23 11:19:46;;;;;;;9.18;4.50;;;17.80;45.50;;;;;;4959683;28;20347;-84
2021/10/23 11:22:15;;;;;;;7.50;3.78;;;18.80;42.90;;;;;;4959468;28;20027;-90
2021/10/23 11:24:49;;;;;;;5.90;3.42;;;19.60;42.40;;;;;;4960343;28;20441;-85
2021/10/23 11:27:53;;;;;;;5.65;2.90;;;20.40;40.80;;;;;;4970132;28;20053;-84
2021/10/23 11:30:26;;;;;;;7.43;3.60;;;21.10;37.80;;;;;;4921592;29;20590;-85
2021/10/23 11:33:01;;;;;;;6.75;3.05;;;21.70;38.40;;;;;;4900901;29;20036;-84
2021/10/23 11:35:39;;;;;;;5.40;3.10;;;21.60;38.40;;;;;;4979631;28;20373;-86
2021/10/23 11:38:16;;;;;;;7.03;3.33;;;21.70;39.10;;;;;;4979153;28;20039;-83
2021/10/23 11:40:42;;;;;;;5.43;3.30;;;22.00;38.40;;;;;;4979209;28;20037;-89
2021/10/23 11:43:14;;;;;;;5.47;3.25;;;22.30;38.10;;;;;;5012377;28;20053;-87
2021/10/23 11:45:39;;;;;;;5.97;3.17;;;22.70;37.00;;;;;;4996819;28;20042;-85
2021/10/23 11:48:10;;;;;;;5.18;2.83;;;22.80;36.80;;;;;;4979684;28;20027;-87
2021/10/23 11:50:38;;;;;;;7.25;2.80;;;23.00;36.00;;;;;;4978939;28;20022;-87
2021/10/23 11:53:24;;;;;;;4.95;2.95;;;22.90;35.70;;;;;;4979481;28;20113;-87
2021/10/23 11:55:55;;;;;;;5.15;2.90;;;22.90;35.40;;;;;;4979613;28;20093;-88
2021/10/23 11:58:27;;;;;;;5.18;2.80;;;22.90;35.60;;;;;;4979206;28;20385;-86
2021/10/23 12:01:03;;;;;;;5.15;2.72;;;23.00;35.30;;;;;;4979448;28;20054;-86
2021/10/23 12:03:42;;;;;;;4.32;2.40;;;23.10;34.80;;;;;;4997386;28;20085;-91
2021/10/23 12:06:25;;;;;;;28.27;21.67;;;23.20;35.30;;;;;;4976426;28;20065;-90
2021/10/23 12:09:13;;;;;;;15.18;10.88;;;23.30;33.10;;;;;;4997072;28;20303;-91
2021/10/23 12:11:39;;;;;;;9.93;4.97;;;23.50;34.60;;;;;;4980944;28;20045;-88
2021/10/23 12:14:11;;;;;;;6.65;3.38;;;23.50;34.00;;;;;;4995438;28;20038;-84
2021/10/23 12:16:47;;;;;;;4.80;2.63;;;23.50;32.50;;;;;;4977822;28;20507;-82
2021/10/23 12:19:17;;;;;;;3.92;2.25;;;23.40;33.10;;;;;;4995237;28;20026;-83
2021/10/23 12:21:43;;;;;;;;;;;23.40;34.60;;;;;;4998261;28;20054;-85
2021/10/23 12:24:25;;;;;;;6.13;2.65;;;23.50;33.10;;;;;;4995576;28;19960;-83
2021/10/23 12:27:05;;;;;;;5.05;2.40;;;23.70;32.80;;;;;;4976901;28;20396;-85
2021/10/23 12:29:45;;;;;;;6.68;2.45;;;23.80;32.80;;;;;;4977312;28;20741;-82
2021/10/23 12:32:17;;;;;;;5.20;2.38;;;23.80;33.00;;;;;;4977487;28;20056;-85
2021/10/23 12:34:55;;;;;;;4.95;2.22;;;23.80;32.60;;;;;;4976734;28;20031;-85
2021/10/23 12:37:27;;;;;;;6.63;2.30;;;23.70;33.00;;;;;;4993957;28;20030;-84
2021/10/23 12:40:13;;;;;;;4.63;2.55;;;23.70;32.30;;;;;;4976879;28;20053;-84
2021/10/23 12:42:42;;;;;;;5.07;2.42;;;23.30;32.20;;;;;;4994305;28;20047;-83
2021/10/23 12:45:10;;;;;;;4.70;2.30;;;22.60;33.40;;;;;;4977355;28;20023;-83
2021/10/23 12:47:36;;;;;;;4.57;2.40;;;22.00;34.70;;;;;;4994744;28;20027;-84
2021/10/23 12:50:03;;;;;;;4.72;2.25;;;21.90;34.70;;;;;;4977234;28;20121;-82
2021/10/23 12:52:28;;;;;;;3.35;1.90;;;22.30;34.50;;;;;;4977230;28;20030;-82
2021/10/23 12:54:54;;;;;;;4.45;1.98;;;22.70;34.00;;;;;;4977462;28;20026;-84
2021/10/23 12:57:20;;;;;;;6.97;1.90;;;23.10;33.70;;;;;;4977113;28;20404;-82
2021/10/23 12:59:45;;;;;;;3.40;1.92;;;23.30;32.50;;;;;;4994448;28;20438;-83
2021/10/23 13:02:11;;;;;;;4.90;2.00;;;23.20;31.90;;;;;;4994414;28;20030;-83